Time;durP1;ratioP1;P1;durP2;ratioP2;P2;SDS_P1;SDS_P2;PMS_P1;PMS_P2;Temp;Humidity;BMP_temperature;BMP_pressure;BME280_temperature;BME280_humidity;BME280_pressure;Samples;Min_cycle;Max_cycle;Signal;HPM_P1;HPM_P2
2022/02/18 00:00:04;;;;;;;4.67;1.40;;;;;;;;;;5019188;28;20192;-68
2022/02/18 00:02:32;;;;;;;4.70;2.10;;;;;;;;;;5012345;28;20215;-68
2022/02/18 00:05:03;;;;;;;3.37;1.90;;;;;;;;;;5016734;28;20199;-68
2022/02/18 00:07:47;;;;;;;2.83;1.67;;;;;;;;;;5030046;28;20207;-68
2022/02/18 00:10:17;;;;;;;2.90;1.50;;;;;;;;;;5024780;28;20211;-67
2022/02/18 00:12:47;;;;;;;4.23;2.00;;;;;;;;;;5029855;28;20424;-68
2022/02/18 00:15:22;;;;;;;4.17;2.03;;;;;;;;;;5026230;28;20198;-68
2022/02/18 00:17:54;;;;;;;4.63;2.00;;;;;;;;;;5021074;28;20227;-68
2022/02/18 00:20:25;;;;;;;3.70;1.70;;;;;;;;;;5026408;28;20201;-68
2022/02/18 00:22:57;;;;;;;5.23;2.23;;;;;;;;;;5012574;28;20203;-68
2022/02/18 00:25:27;;;;;;;4.93;1.90;;;;;;;;;;5028511;28;20214;-68
2022/02/18 00:28:01;;;;;;;4.70;1.53;;;;;;;;;;5021438;28;20194;-68
2022/02/18 00:30:36;;;;;;;3.83;1.60;;;;;;;;;;5012366;28;20207;-67
2022/02/18 00:33:10;;;;;;;5.03;2.13;;;;;;;;;;5027571;28;20203;-67
2022/02/18 00:35:42;;;;;;;2.80;1.73;;;;;;;;;;5026234;28;20641;-67
2022/02/18 00:38:14;;;;;;;4.37;1.93;;;;;;;;;;5023771;28;20223;-67
2022/02/18 00:40:45;;;;;;;3.77;1.80;;;;;;;;;;5028120;28;20410;-67
2022/02/18 00:43:16;;;;;;;3.67;1.90;;;;;;;;;;5023739;28;20239;-67
2022/02/18 00:45:48;;;;;;;3.60;1.63;;;;;;;;;;5025175;28;20210;-67
2022/02/18 00:48:22;;;;;;;4.03;1.63;;;;;;;;;;5022503;28;20210;-67
2022/02/18 00:50:54;;;;;;;4.70;1.83;;;;;;;;;;5022487;28;20207;-68
2022/02/18 00:53:25;;;;;;;2.77;1.57;;;;;;;;;;5021331;28;20224;-67
2022/02/18 00:55:57;;;;;;;3.17;1.47;;;;;;;;;;5024587;28;20641;-68
2022/02/18 00:58:27;;;;;;;3.80;1.70;;;;;;;;;;5020156;28;20239;-68
2022/02/18 01:01:05;;;;;;;4.20;1.80;;;;;;;;;;5025880;28;20849;-68
2022/02/18 01:03:36;;;;;;;4.17;1.60;;;;;;;;;;5019245;28;20211;-68
2022/02/18 01:06:08;;;;;;;3.07;1.60;;;;;;;;;;5017482;28;20207;-68
2022/02/18 01:08:38;;;;;;;3.33;1.83;;;;;;;;;;5021569;28;20199;-68
2022/02/18 01:11:19;;;;;;;2.70;1.43;;;;;;;;;;5025505;28;20622;-67
2022/02/18 01:13:49;;;;;;;2.60;1.40;;;;;;;;;;5021658;28;20199;-67
2022/02/18 01:16:17;;;;;;;2.90;1.57;;;;;;;;;;5023730;28;20211;-67
2022/02/18 01:18:50;;;;;;;3.60;1.50;;;;;;;;;;5016252;28;20244;-67
2022/02/18 01:21:21;;;;;;;3.97;1.70;;;;;;;;;;5029474;28;20223;-67
2022/02/18 01:23:50;;;;;;;5.50;1.80;;;;;;;;;;5030041;28;20203;-68
2022/02/18 01:26:20;;;;;;;3.90;1.77;;;;;;;;;;5025299;28;20207;-67
2022/02/18 01:28:49;;;;;;;5.07;2.20;;;;;;;;;;5006870;28;20883;-67
2022/02/18 01:31:20;;;;;;;3.93;1.77;;;;;;;;;;5003962;28;20236;-68
2022/02/18 01:33:53;;;;;;;3.40;1.50;;;;;;;;;;5027958;28;20214;-67
2022/02/18 01:36:28;;;;;;;3.60;1.43;;;;;;;;;;5007940;28;20202;-67
2022/02/18 01:39:00;;;;;;;3.07;1.50;;;;;;;;;;5022123;28;20222;-67
2022/02/18 01:41:35;;;;;;;2.47;1.40;;;;;;;;;;5019855;28;20230;-68
2022/02/18 01:44:06;;;;;;;2.83;1.60;;;;;;;;;;5027624;28;20195;-67
2022/02/18 01:46:36;;;;;;;4.17;1.70;;;;;;;;;;5020158;28;20208;-68
2022/02/18 01:49:07;;;;;;;3.83;1.70;;;;;;;;;;5001119;28;20704;-68
2022/02/18 01:51:38;;;;;;;3.47;1.70;;;;;;;;;;5017758;28;22215;-67
2022/02/18 01:54:11;;;;;;;4.27;1.60;;;;;;;;;;5019815;28;20211;-68
2022/02/18 01:56:43;;;;;;;3.03;1.57;;;;;;;;;;5004684;28;20298;-68
2022/02/18 01:59:14;;;;;;;3.67;1.70;;;;;;;;;;5008198;28;20230;-67
2022/02/18 02:01:49;;;;;;;3.70;1.50;;;;;;;;;;5024819;28;20263;-68
2022/02/18 02:04:21;;;;;;;3.53;1.60;;;;;;;;;;5027988;28;20580;-68
2022/02/18 02:07:06;;;;;;;2.77;1.43;;;;;;;;;;5017419;28;20219;-67
2022/02/18 02:09:34;;;;;;;5.50;1.80;;;;;;;;;;5024083;28;20279;-68
2022/02/18 02:12:13;;;;;;;4.70;1.70;;;;;;;;;;5010255;28;20195;-67
2022/02/18 02:14:43;;;;;;;2.50;1.27;;;;;;;;;;5025966;28;20674;-67
2022/02/18 02:17:16;;;;;;;5.23;2.17;;;;;;;;;;5028010;28;20278;-68
2022/02/18 02:19:45;;;;;;;4.17;1.90;;;;;;;;;;5027966;28;20226;-67
2022/02/18 02:22:24;;;;;;;4.60;1.60;;;;;;;;;;5024060;28;20200;-68
2022/02/18 02:25:06;;;;;;;5.97;1.60;;;;;;;;;;5021803;28;20220;-68
2022/02/18 02:27:35;;;;;;;3.30;1.50;;;;;;;;;;5027319;28;20253;-67
2022/02/18 02:30:05;;;;;;;3.23;1.93;;;;;;;;;;5020349;28;20214;-66
2022/02/18 02:32:38;;;;;;;5.23;1.73;;;;;;;;;;5027773;28;20199;-67
2022/02/18 02:35:11;;;;;;;4.60;1.83;;;;;;;;;;5010959;28;20195;-68
2022/02/18 02:37:40;;;;;;;4.17;2.03;;;;;;;;;;5027657;28;20258;-68
2022/02/18 02:40:13;;;;;;;5.00;2.20;;;;;;;;;;5026870;28;20202;-68
2022/02/18 02:42:44;;;;;;;4.40;2.00;;;;;;;;;;5022591;28;20215;-67
2022/02/18 02:45:14;;;;;;;4.93;1.93;;;;;;;;;;5009708;28;20258;-67
2022/02/18 02:47:48;;;;;;;4.07;2.00;;;;;;;;;;5024309;28;20574;-67
2022/02/18 02:50:18;;;;;;;3.50;1.80;;;;;;;;;;5022644;28;20673;-71
2022/02/18 02:52:50;;;;;;;4.77;2.03;;;;;;;;;;5027238;28;20627;-68
2022/02/18 02:55:25;;;;;;;4.87;1.40;;;;;;;;;;5024973;28;20546;-66
2022/02/18 02:57:58;;;;;;;3.70;2.13;;;;;;;;;;5008118;28;20233;-68
2022/02/18 03:00:40;;;;;;;5.37;2.10;;;;;;;;;;5020828;28;20313;-67
2022/02/18 03:03:09;;;;;;;4.13;2.10;;;;;;;;;;5016898;28;20585;-68
2022/02/18 03:05:40;;;;;;;4.10;1.70;;;;;;;;;;5006798;28;20629;-68
2022/02/18 03:08:11;;;;;;;5.13;1.93;;;;;;;;;;4989559;28;20277;-67
2022/02/18 03:11:14;;;;;;;4.27;1.70;;;;;;;;;;5027137;28;20514;-68
2022/02/18 03:13:38;;;;;;;4.63;1.90;;;;;;;;;;5016829;28;20207;-67
2022/02/18 03:16:10;;;;;;;4.50;1.77;;;;;;;;;;5007094;28;20213;-67
2022/02/18 03:18:43;;;;;;;4.07;1.70;;;;;;;;;;5018285;28;20309;-67
2022/02/18 03:21:17;;;;;;;5.17;2.20;;;;;;;;;;4988607;28;20211;-67
2022/02/18 03:23:49;;;;;;;4.30;1.83;;;;;;;;;;5018820;28;20190;-68
2022/02/18 03:26:22;;;;;;;3.73;1.80;;;;;;;;;;5022610;28;20203;-67
2022/02/18 03:28:53;;;;;;;3.90;1.80;;;;;;;;;;5017026;28;20211;-68
2022/02/18 03:31:25;;;;;;;4.20;1.70;;;;;;;;;;5022250;28;20234;-67
2022/02/18 03:33:56;;;;;;;4.27;1.60;;;;;;;;;;5021598;28;20206;-67
2022/02/18 03:36:26;;;;;;;4.63;1.83;;;;;;;;;;5021463;28;20207;-67
2022/02/18 03:38:58;;;;;;;6.07;2.00;;;;;;;;;;5019334;28;20218;-67
2022/02/18 03:41:30;;;;;;;4.00;1.93;;;;;;;;;;5017069;28;20220;-67
2022/02/18 03:44:02;;;;;;;4.30;2.03;;;;;;;;;;5015934;28;20195;-68
2022/02/18 03:46:31;;;;;;;4.00;1.83;;;;;;;;;;5018337;28;20227;-68
2022/02/18 03:49:02;;;;;;;3.97;2.03;;;;;;;;;;5025862;28;20673;-68
2022/02/18 03:51:33;;;;;;;5.70;2.20;;;;;;;;;;4999873;28;20195;-67
2022/02/18 03:54:06;;;;;;;5.20;2.10;;;;;;;;;;5034670;28;20225;-67
2022/02/18 03:56:34;;;;;;;5.20;2.00;;;;;;;;;;5018467;28;20693;-68
2022/02/18 03:59:03;;;;;;;5.27;1.90;;;;;;;;;;5015571;28;20223;-67
2022/02/18 04:01:37;;;;;;;4.77;2.17;;;;;;;;;;5005352;28;20187;-67
2022/02/18 04:04:06;;;;;;;5.10;1.93;;;;;;;;;;5034008;28;20231;-67
2022/02/18 04:06:37;;;;;;;7.17;1.93;;;;;;;;;;5019714;28;20215;-68
2022/02/18 04:09:11;;;;;;;4.73;2.23;;;;;;;;;;5018292;28;20195;-68
2022/02/18 04:11:40;;;;;;;5.43;2.03;;;;;;;;;;5018741;28;20207;-68
2022/02/18 04:14:14;;;;;;;7.27;2.83;;;;;;;;;;5028773;28;20650;-68
2022/02/18 04:16:44;;;;;;;7.27;2.70;;;;;;;;;;5018118;28;20634;-67
2022/02/18 04:19:13;;;;;;;6.47;2.40;;;;;;;;;;5018288;28;20330;-68
2022/02/18 04:22:07;;;;;;;6.73;2.33;;;;;;;;;;5022015;28;20645;-67
2022/02/18 04:24:38;;;;;;;6.00;2.43;;;;;;;;;;5025803;28;20196;-67
2022/02/18 04:27:06;;;;;;;7.67;2.60;;;;;;;;;;5021196;28;20285;-67
2022/02/18 04:29:37;;;;;;;5.50;2.13;;;;;;;;;;5022516;28;20656;-67
2022/02/18 04:32:09;;;;;;;8.17;2.70;;;;;;;;;;5026840;28;20195;-68
2022/02/18 04:34:40;;;;;;;3.97;1.93;;;;;;;;;;5019498;28;20669;-67
2022/02/18 04:37:12;;;;;;;5.03;2.03;;;;;;;;;;5008101;28;20193;-68
2022/02/18 04:39:42;;;;;;;6.20;2.43;;;;;;;;;;5021641;28;20215;-67
2022/02/18 04:42:12;;;;;;;6.70;2.37;;;;;;;;;;5027381;28;20650;-68
2022/02/18 04:44:44;;;;;;;7.97;2.63;;;;;;;;;;5022388;28;20204;-67
2022/02/18 04:47:14;;;;;;;6.80;2.80;;;;;;;;;;5012632;28;20210;-67
2022/02/18 04:49:49;;;;;;;5.63;2.43;;;;;;;;;;5022271;28;20265;-67
2022/02/18 04:52:19;;;;;;;6.40;2.67;;;;;;;;;;5019085;28;20210;-67
2022/02/18 04:54:53;;;;;;;5.63;2.13;;;;;;;;;;5016686;28;20199;-68
2022/02/18 04:57:24;;;;;;;6.90;2.53;;;;;;;;;;5028139;28;20330;-67
2022/02/18 05:00:01;;;;;;;6.80;2.30;;;;;;;;;;5020774;28;20210;-67
2022/02/18 05:02:34;;;;;;;6.23;2.60;;;;;;;;;;5022773;28;20226;-67
2022/02/18 05:05:08;;;;;;;5.97;2.40;;;;;;;;;;5017827;28;20194;-68
2022/02/18 05:07:43;;;;;;;7.77;2.43;;;;;;;;;;5029412;28;20269;-67
2022/02/18 05:10:14;;;;;;;6.20;2.67;;;;;;;;;;5020326;28;20203;-67
2022/02/18 05:12:45;;;;;;;4.77;1.93;;;;;;;;;;5020224;28;20207;-68
2022/02/18 05:15:22;;;;;;;6.93;2.73;;;;;;;;;;5023608;28;20564;-66
2022/02/18 05:17:52;;;;;;;6.43;2.53;;;;;;;;;;5023834;28;20592;-69
2022/02/18 05:20:23;;;;;;;7.77;2.23;;;;;;;;;;5025095;28;20682;-68
2022/02/18 05:22:52;;;;;;;6.03;2.30;;;;;;;;;;5007425;28;20290;-67
2022/02/18 05:25:25;;;;;;;7.37;2.90;;;;;;;;;;5027006;28;20206;-68
2022/02/18 05:27:54;;;;;;;6.87;2.43;;;;;;;;;;4994039;28;20204;-67
2022/02/18 05:30:24;;;;;;;6.43;2.23;;;;;;;;;;5006936;28;20855;-68
2022/02/18 05:32:55;;;;;;;5.50;2.40;;;;;;;;;;5023758;28;20264;-68
2022/02/18 05:35:25;;;;;;;8.67;2.57;;;;;;;;;;5013378;28;20223;-68
2022/02/18 05:37:55;;;;;;;5.43;2.53;;;;;;;;;;5019849;28;20196;-67
2022/02/18 05:40:25;;;;;;;5.13;2.10;;;;;;;;;;5040738;28;20799;-68
2022/02/18 05:42:58;;;;;;;5.37;2.53;;;;;;;;;;5015096;28;20273;-66
2022/02/18 05:45:29;;;;;;;6.27;2.33;;;;;;;;;;5032969;28;20234;-68
2022/02/18 05:47:59;;;;;;;6.70;2.63;;;;;;;;;;5003299;28;20211;-67
2022/02/18 05:50:27;;;;;;;7.67;2.40;;;;;;;;;;5023047;28;20236;-67
2022/02/18 05:52:54;;;;;;;6.33;1.87;;;;;;;;;;5015787;28;20273;-67
2022/02/18 05:55:22;;;;;;;7.33;2.77;;;;;;;;;;5020617;28;20210;-67
2022/02/18 05:57:55;;;;;;;7.33;2.80;;;;;;;;;;5020357;28;20243;-68
2022/02/18 06:00:23;;;;;;;7.30;2.67;;;;;;;;;;5033214;28;20231;-68
2022/02/18 06:03:04;;;;;;;6.93;2.37;;;;;;;;;;5014262;28;20616;-67
2022/02/18 06:05:40;;;;;;;6.80;2.60;;;;;;;;;;5028810;28;20210;-67
2022/02/18 06:08:19;;;;;;;6.60;2.40;;;;;;;;;;5021436;28;20214;-67
2022/02/18 06:10:48;;;;;;;7.60;2.40;;;;;;;;;;5024431;28;20262;-68
2022/02/18 06:13:19;;;;;;;7.20;2.60;;;;;;;;;;5004242;28;20195;-68
2022/02/18 06:15:50;;;;;;;7.67;2.47;;;;;;;;;;5024926;28;20207;-67
2022/02/18 06:18:19;;;;;;;9.80;3.00;;;;;;;;;;5005935;28;20226;-66
2022/02/18 06:20:53;;;;;;;8.37;2.77;;;;;;;;;;5023031;28;20220;-66
2022/02/18 06:23:25;;;;;;;9.33;3.03;;;;;;;;;;5012308;28;20195;-66
2022/02/18 06:25:57;;;;;;;18.53;4.90;;;;;;;;;;5022473;28;20207;-67
2022/02/18 06:28:28;;;;;;;11.90;3.97;;;;;;;;;;5024601;28;20544;-67
2022/02/18 06:30:58;;;;;;;11.13;3.70;;;;;;;;;;5012873;28;20650;-67
2022/02/18 06:33:28;;;;;;;12.50;3.77;;;;;;;;;;5024298;28;20199;-66
2022/02/18 06:36:04;;;;;;;10.57;3.40;;;;;;;;;;5031807;28;20199;-66
2022/02/18 06:38:35;;;;;;;11.93;4.00;;;;;;;;;;5028172;28;20641;-67
2022/02/18 06:41:04;;;;;;;11.33;3.77;;;;;;;;;;5021506;28;20286;-65
2022/02/18 06:43:33;;;;;;;8.90;3.80;;;;;;;;;;5026652;28;20226;-67
2022/02/18 06:46:07;;;;;;;11.70;3.47;;;;;;;;;;5030952;28;20235;-65
2022/02/18 06:48:36;;;;;;;10.10;4.20;;;;;;;;;;5023905;28;20290;-68
2022/02/18 06:51:07;;;;;;;11.30;3.90;;;;;;;;;;5026954;28;20194;-67
2022/02/18 06:53:42;;;;;;;11.33;3.80;;;;;;;;;;5023181;28;20222;-67
2022/02/18 06:56:15;;;;;;;9.73;3.50;;;;;;;;;;5028883;28;20210;-67
2022/02/18 06:58:46;;;;;;;10.23;4.00;;;;;;;;;;5010625;28;20238;-67
2022/02/18 07:01:22;;;;;;;11.00;3.80;;;;;;;;;;5022755;28;20194;-68
2022/02/18 07:03:53;;;;;;;8.23;4.00;;;;;;;;;;5026731;28;20214;-67
2022/02/18 07:06:23;;;;;;;8.53;3.23;;;;;;;;;;5003596;28;20613;-68
2022/02/18 07:08:50;;;;;;;10.07;3.23;;;;;;;;;;5002088;28;20217;-75
2022/02/18 07:11:23;;;;;;;34.20;8.17;;;;;;;;;;5012707;28;20318;-71
2022/02/18 07:13:55;;;;;;;39.47;9.17;;;;;;;;;;5024285;28;20207;-72
2022/02/18 07:16:25;;;;;;;28.03;7.53;;;;;;;;;;5024264;28;20221;-71
2022/02/18 07:18:56;;;;;;;28.87;8.33;;;;;;;;;;5020898;28;20646;-71
2022/02/18 07:21:25;;;;;;;26.17;7.67;;;;;;;;;;5025547;28;20219;-70
2022/02/18 07:23:57;;;;;;;17.07;6.07;;;;;;;;;;5025875;28;20198;-70
2022/02/18 07:26:30;;;;;;;20.10;6.57;;;;;;;;;;5026291;28;20198;-69
2022/02/18 07:28:59;;;;;;;16.50;5.77;;;;;;;;;;5022501;28;20223;-71
2022/02/18 07:31:29;;;;;;;15.57;5.60;;;;;;;;;;5016442;28;20217;-71
2022/02/18 07:34:01;;;;;;;19.10;5.30;;;;;;;;;;5024635;28;20203;-72
2022/02/18 07:36:32;;;;;;;14.77;5.33;;;;;;;;;;5010992;28;20211;-72
2022/02/18 07:39:02;;;;;;;12.00;5.40;;;;;;;;;;5024559;28;20210;-74
2022/02/18 07:41:38;;;;;;;10.83;4.53;;;;;;;;;;5008139;28;20203;-73
2022/02/18 07:44:09;;;;;;;11.93;4.47;;;;;;;;;;5026903;28;20285;-73
2022/02/18 07:46:53;;;;;;;11.63;3.90;;;;;;;;;;5012415;28;20292;-73
2022/02/18 07:49:47;;;;;;;9.07;3.93;;;;;;;;;;5024549;28;20207;-71
2022/02/18 07:52:20;;;;;;;7.37;3.70;;;;;;;;;;5022050;28;20196;-72
2022/02/18 07:54:56;;;;;;;8.60;3.30;;;;;;;;;;5016636;28;20302;-72
2022/02/18 07:57:30;;;;;;;7.23;3.40;;;;;;;;;;5021918;28;20247;-74
2022/02/18 08:00:00;;;;;;;9.70;3.40;;;;;;;;;;5021461;28;20598;-76
2022/02/18 08:02:31;;;;;;;9.77;3.67;;;;;;;;;;5025725;28;20199;-76
2022/02/18 08:05:07;;;;;;;7.33;3.33;;;;;;;;;;5007890;28;20230;-74
2022/02/18 08:07:39;;;;;;;5.53;2.70;;;;;;;;;;5027421;28;20736;-70
2022/02/18 08:10:10;;;;;;;9.00;3.13;;;;;;;;;;5027374;28;20210;-71
2022/02/18 08:12:40;;;;;;;8.87;3.43;;;;;;;;;;5029419;28;20637;-72
2022/02/18 08:15:17;;;;;;;8.07;3.30;;;;;;;;;;5009237;28;20644;-70
2022/02/18 08:17:50;;;;;;;7.83;2.80;;;;;;;;;;5025352;28;20732;-74
2022/02/18 08:20:20;;;;;;;7.53;2.80;;;;;;;;;;5029088;28;20227;-71
2022/02/18 08:22:50;;;;;;;6.43;2.50;;;;;;;;;;5023111;28;20203;-72
2022/02/18 08:25:23;;;;;;;4.53;2.40;;;;;;;;;;5026980;28;20246;-74
2022/02/18 08:27:53;;;;;;;6.93;2.30;;;;;;;;;;5028637;28;20203;-72
2022/02/18 08:30:24;;;;;;;6.37;2.33;;;;;;;;;;5026678;28;20213;-72
2022/02/18 08:32:54;;;;;;;5.00;2.23;;;;;;;;;;5018095;28;20206;-73
2022/02/18 08:35:28;;;;;;;3.70;2.10;;;;;;;;;;5027641;28;20217;-74
2022/02/18 08:38:02;;;;;;;5.43;2.10;;;;;;;;;;5023270;28;20203;-73
2022/02/18 08:40:36;;;;;;;4.70;2.23;;;;;;;;;;5025586;28;20276;-74
2022/02/18 08:43:10;;;;;;;5.70;1.90;;;;;;;;;;5008195;28;20731;-74
2022/02/18 08:45:43;;;;;;;5.07;2.07;;;;;;;;;;5027596;28;20203;-72
2022/02/18 08:48:34;;;;;;;5.20;2.37;;;;;;;;;;5024120;28;20191;-70
2022/02/18 08:51:02;;;;;;;6.10;2.07;;;;;;;;;;5020481;28;20211;-70
2022/02/18 08:53:38;;;;;;;5.17;2.07;;;;;;;;;;5014522;28;20247;-69
2022/02/18 08:56:07;;;;;;;5.27;2.23;;;;;;;;;;5023914;28;20235;-69
2022/02/18 08:58:39;;;;;;;7.73;1.90;;;;;;;;;;5020301;28;20699;-69
2022/02/18 09:01:10;;;;;;;3.57;1.57;;;;;;;;;;5015779;28;20239;-70
2022/02/18 09:03:42;;;;;;;3.50;2.00;;;;;;;;;;5011138;28;20227;-73
2022/02/18 09:06:11;;;;;;;3.83;1.53;;;;;;;;;;5023617;28;20215;-72
2022/02/18 09:08:41;;;;;;;6.33;1.70;;;;;;;;;;5018832;28;20207;-73
2022/02/18 09:11:09;;;;;;;3.10;1.40;;;;;;;;;;5024300;28;20191;-69
2022/02/18 09:13:38;;;;;;;3.67;1.53;;;;;;;;;;5006605;28;20211;-69
2022/02/18 09:16:05;;;;;;;8.50;1.30;;;;;;;;;;5025858;28;20520;-69
2022/02/18 09:18:37;;;;;;;2.73;1.00;;;;;;;;;;5021095;28;20265;-70
2022/02/18 09:21:10;;;;;;;4.97;1.30;;;;;;;;;;5006542;28;20218;-73
2022/02/18 09:24:01;;;;;;;2.43;1.03;;;;;;;;;;5025087;28;20195;-74
2022/02/18 09:26:37;;;;;;;3.40;1.20;;;;;;;;;;5010465;28;20202;-71
2022/02/18 09:29:11;;;;;;;4.57;0.87;;;;;;;;;;5018255;28;20202;-71
2022/02/18 09:31:44;;;;;;;4.67;1.00;;;;;;;;;;5024427;28;20195;-65
2022/02/18 09:34:16;;;;;;;4.67;1.33;;;;;;;;;;5021282;28;20218;-67
2022/02/18 09:36:50;;;;;;;3.50;0.90;;;;;;;;;;5009268;28;20279;-67
2022/02/18 09:39:22;;;;;;;3.73;1.07;;;;;;;;;;5020853;28;20221;-66
2022/02/18 09:41:54;;;;;;;3.60;1.07;;;;;;;;;;5020544;28;20227;-67
2022/02/18 09:44:31;;;;;;;2.53;1.00;;;;;;;;;;5024620;28;20707;-66
2022/02/18 09:47:14;;;;;;;2.50;1.20;;;;;;;;;;5018869;28;20880;-69
2022/02/18 09:49:45;;;;;;;3.30;1.13;;;;;;;;;;5023345;28;20290;-65
2022/02/18 09:52:15;;;;;;;1.73;0.70;;;;;;;;;;5022479;28;20278;-65
2022/02/18 09:54:46;;;;;;;2.27;0.90;;;;;;;;;;5022234;28;20222;-66
2022/02/18 09:57:19;;;;;;;3.03;0.90;;;;;;;;;;5022342;28;20617;-67
2022/02/18 09:59:52;;;;;;;1.17;0.67;;;;;;;;;;5022790;28;20215;-67
2022/02/18 10:02:23;;;;;;;2.63;0.90;;;;;;;;;;5021440;28;20192;-67
2022/02/18 10:05:01;;;;;;;2.20;0.70;;;;;;;;;;5018855;28;20210;-67
2022/02/18 10:07:32;;;;;;;3.33;0.70;;;;;;;;;;5019425;28;20669;-67
2022/02/18 10:10:15;;;;;;;0.90;0.70;;;;;;;;;;5021497;28;20236;-67
2022/02/18 10:12:50;;;;;;;1.90;1.03;;;;;;;;;;5019179;28;20600;-67
2022/02/18 10:15:20;;;;;;;2.97;0.73;;;;;;;;;;5023969;28;20219;-66
2022/02/18 10:17:49;;;;;;;2.40;0.90;;;;;;;;;;5019940;28;20211;-68
2022/02/18 10:20:24;;;;;;;1.63;0.80;;;;;;;;;;5024755;28;20211;-67
2022/02/18 10:23:05;;;;;;;1.13;0.80;;;;;;;;;;5002936;28;20532;-66
2022/02/18 10:25:42;;;;;;;1.10;0.70;;;;;;;;;;5019264;28;20675;-65
2022/02/18 10:28:14;;;;;;;2.10;0.83;;;;;;;;;;5023777;28;20630;-67
2022/02/18 10:30:49;;;;;;;0.80;0.60;;;;;;;;;;5003190;28;20724;-67
2022/02/18 10:33:25;;;;;;;2.20;0.60;;;;;;;;;;5021978;28;20519;-66
2022/02/18 10:36:04;;;;;;;0.93;0.70;;;;;;;;;;5022094;28;20208;-66
2022/02/18 10:39:21;;;;;;;2.97;0.73;;;;;;;;;;5021285;28;20202;-67
2022/02/18 10:42:01;;;;;;;1.60;0.60;;;;;;;;;;5015417;28;20243;-66
2022/02/18 10:44:35;;;;;;;0.90;0.60;;;;;;;;;;5020817;28;20916;-67
2022/02/18 10:47:08;;;;;;;0.80;0.40;;;;;;;;;;5017462;28;20218;-69
2022/02/18 10:49:50;;;;;;;0.70;0.60;;;;;;;;;;5011587;28;20208;-70
2022/02/18 10:52:24;;;;;;;3.33;0.50;;;;;;;;;;5020218;28;20203;-70
2022/02/18 10:54:57;;;;;;;1.80;0.60;;;;;;;;;;5018621;28;20290;-69
2022/02/18 10:57:42;;;;;;;2.10;0.40;;;;;;;;;;5020406;28;20226;-72
2022/02/18 11:00:16;;;;;;;0.70;0.60;;;;;;;;;;5014433;28;20199;-72
2022/02/18 11:02:52;;;;;;;0.67;0.50;;;;;;;;;;5004216;28;20207;-73
2022/02/18 11:05:30;;;;;;;1.17;0.40;;;;;;;;;;5018883;28;20242;-72
2022/02/18 11:08:00;;;;;;;1.60;0.60;;;;;;;;;;5004420;28;20545;-66
2022/02/18 11:10:32;;;;;;;1.27;0.50;;;;;;;;;;5017802;28;20265;-65
2022/02/18 11:13:04;;;;;;;0.70;0.50;;;;;;;;;;5004330;28;20199;-65
2022/02/18 11:15:42;;;;;;;1.60;0.80;;;;;;;;;;5023930;28;20203;-66
2022/02/18 11:18:13;;;;;;;1.67;0.80;;;;;;;;;;5005181;28;20223;-67
2022/02/18 11:20:46;;;;;;;1.77;0.70;;;;;;;;;;5023925;28;20222;-67
2022/02/18 11:23:21;;;;;;;1.23;0.50;;;;;;;;;;5026517;28;20302;-67
2022/02/18 11:25:53;;;;;;;2.90;0.90;;;;;;;;;;5023824;28;20270;-67
2022/02/18 11:28:24;;;;;;;1.23;0.63;;;;;;;;;;5024786;28;20245;-68
2022/02/18 11:31:02;;;;;;;1.27;0.60;;;;;;;;;;5025236;28;20218;-66
2022/02/18 11:33:38;;;;;;;1.37;0.60;;;;;;;;;;5029113;28;20195;-66
2022/02/18 11:36:32;;;;;;;1.23;0.80;;;;;;;;;;5029982;28;20732;-67
2022/02/18 11:39:22;;;;;;;0.87;0.70;;;;;;;;;;5004746;28;20211;-67
2022/02/18 11:42:06;;;;;;;1.83;0.80;;;;;;;;;;5015977;28;20239;-66
2022/02/18 11:44:39;;;;;;;1.90;0.70;;;;;;;;;;5023518;28;20288;-67
2022/02/18 11:47:16;;;;;;;2.57;0.80;;;;;;;;;;5008172;28;20203;-68
2022/02/18 11:49:47;;;;;;;5.73;0.70;;;;;;;;;;5016864;28;20214;-68
2022/02/18 11:52:22;;;;;;;1.50;0.60;;;;;;;;;;5021144;28;20192;-69
2022/02/18 11:54:54;;;;;;;0.50;0.50;;;;;;;;;;5006180;28;20202;-68
2022/02/18 11:57:29;;;;;;;1.30;0.80;;;;;;;;;;5031195;28;20235;-71
2022/02/18 12:00:08;;;;;;;2.30;0.70;;;;;;;;;;5021791;28;20191;-69
2022/02/18 12:02:42;;;;;;;1.30;0.60;;;;;;;;;;5028283;28;20206;-70
2022/02/18 12:05:16;;;;;;;1.83;0.50;;;;;;;;;;5017113;28;20269;-69
2022/02/18 12:07:50;;;;;;;1.20;0.50;;;;;;;;;;5009676;28;20198;-67
2022/02/18 12:10:27;;;;;;;0.93;0.70;;;;;;;;;;5018892;28;20214;-68
2022/02/18 12:13:05;;;;;;;0.90;0.40;;;;;;;;;;5025145;28;20257;-68
2022/02/18 12:15:36;;;;;;;1.53;0.50;;;;;;;;;;5021260;28;20203;-69
2022/02/18 12:18:25;;;;;;;0.80;0.40;;;;;;;;;;5017940;28;20721;-67
2022/02/18 12:21:23;;;;;;;0.70;0.57;;;;;;;;;;5020357;28;20215;-68
2022/02/18 12:24:19;;;;;;;1.97;0.57;;;;;;;;;;5026907;28;20596;-69
2022/02/18 12:27:19;;;;;;;1.07;0.60;;;;;;;;;;5018408;28;20267;-69
2022/02/18 12:29:49;;;;;;;3.03;0.70;;;;;;;;;;5020457;28;20249;-68
2022/02/18 12:32:21;;;;;;;1.07;0.50;;;;;;;;;;5007452;28;20195;-68
2022/02/18 12:35:09;;;;;;;1.53;0.60;;;;;;;;;;5019380;28;20209;-68
2022/02/18 12:37:42;;;;;;;0.30;0.30;;;;;;;;;;5019336;28;20638;-68
2022/02/18 12:40:16;;;;;;;1.10;0.70;;;;;;;;;;5023538;28;20207;-68
2022/02/18 12:42:56;;;;;;;0.90;0.60;;;;;;;;;;5020711;28;20202;-68
2022/02/18 12:45:46;;;;;;;0.93;0.40;;;;;;;;;;5026983;28;20234;-69
2022/02/18 12:48:38;;;;;;;0.93;0.37;;;;;;;;;;5027506;28;20193;-69
2022/02/18 12:51:14;;;;;;;0.80;0.57;;;;;;;;;;5008297;28;20203;-69
2022/02/18 12:53:49;;;;;;;0.40;0.40;;;;;;;;;;5020066;28;20222;-65
2022/02/18 12:56:33;;;;;;;1.03;0.50;;;;;;;;;;5019628;28;20560;-65
2022/02/18 12:59:06;;;;;;;1.10;0.50;;;;;;;;;;5019042;28;20239;-64
2022/02/18 13:01:40;;;;;;;0.40;0.40;;;;;;;;;;5021794;28;20227;-65
2022/02/18 13:04:17;;;;;;;1.20;0.40;;;;;;;;;;5024013;28;20203;-63
2022/02/18 13:06:53;;;;;;;1.80;0.40;;;;;;;;;;5001077;28;20957;-65
2022/02/18 13:09:39;;;;;;;1.00;0.40;;;;;;;;;;5006230;28;20610;-68
2022/02/18 13:12:17;;;;;;;3.40;0.50;;;;;;;;;;4996540;28;20207;-69
2022/02/18 13:14:48;;;;;;;1.03;0.63;;;;;;;;;;5005425;28;20205;-68
2022/02/18 13:17:22;;;;;;;0.50;0.47;;;;;;;;;;5019862;28;20260;-68
2022/02/18 13:19:50;;;;;;;2.23;0.50;;;;;;;;;;5016285;28;20233;-68
2022/02/18 13:22:18;;;;;;;3.77;0.40;;;;;;;;;;5007361;28;20227;-68
2022/02/18 13:24:50;;;;;;;1.90;0.53;;;;;;;;;;5015299;28;20282;-68
2022/02/18 13:27:18;;;;;;;0.70;0.50;;;;;;;;;;5023935;28;20203;-70
2022/02/18 13:29:49;;;;;;;1.13;0.80;;;;;;;;;;5017118;28;20268;-71
2022/02/18 13:32:19;;;;;;;1.77;0.40;;;;;;;;;;5026239;28;20631;-71
2022/02/18 13:34:49;;;;;;;2.20;0.73;;;;;;;;;;5009025;28;20227;-70
2022/02/18 13:37:18;;;;;;;0.53;0.50;;;;;;;;;;5007315;28;20204;-70
2022/02/18 13:39:50;;;;;;;1.50;0.63;;;;;;;;;;5018870;28;20389;-70
2022/02/18 13:42:50;;;;;;;1.27;0.60;;;;;;;;;;5017360;28;20249;-69
2022/02/18 13:45:19;;;;;;;1.40;0.70;;;;;;;;;;5020438;28;20526;-69
2022/02/18 13:47:52;;;;;;;1.20;0.60;;;;;;;;;;5008554;28;20211;-69
2022/02/18 13:50:23;;;;;;;1.40;0.60;;;;;;;;;;5021764;28;20206;-69
2022/02/18 13:53:08;;;;;;;0.93;0.40;;;;;;;;;;5020853;28;20857;-67
2022/02/18 13:55:38;;;;;;;1.73;0.60;;;;;;;;;;5014968;28;20227;-67
2022/02/18 13:58:26;;;;;;;1.07;0.57;;;;;;;;;;5023139;28;20230;-68
2022/02/18 14:00:57;;;;;;;0.70;0.53;;;;;;;;;;5000393;28;20223;-70
2022/02/18 14:03:28;;;;;;;2.03;0.60;;;;;;;;;;5007799;28;20223;-71
2022/02/18 14:06:14;;;;;;;1.03;0.50;;;;;;;;;;5018576;28;20212;-70
2022/02/18 14:08:56;;;;;;;5.40;0.70;;;;;;;;;;5026687;28;20199;-69
2022/02/18 14:11:27;;;;;;;1.23;0.70;;;;;;;;;;5015783;28;20227;-70
2022/02/18 14:14:19;;;;;;;0.70;0.50;;;;;;;;;;5026709;28;20641;-71
2022/02/18 14:16:57;;;;;;;1.57;0.80;;;;;;;;;;5010610;28;20207;-68
2022/02/18 14:19:47;;;;;;;0.90;0.60;;;;;;;;;;5007337;28;20207;-69
2022/02/18 14:22:33;;;;;;;0.93;0.50;;;;;;;;;;5023648;28;20203;-67
2022/02/18 14:25:28;;;;;;;4.27;0.80;;;;;;;;;;5017490;28;20247;-68
2022/02/18 14:27:59;;;;;;;1.27;0.60;;;;;;;;;;5012076;28;20218;-65
2022/02/18 14:30:46;;;;;;;1.93;0.70;;;;;;;;;;5002450;28;20218;-68
2022/02/18 14:33:39;;;;;;;0.87;0.60;;;;;;;;;;5016848;28;20591;-68
2022/02/18 14:36:26;;;;;;;1.13;0.70;;;;;;;;;;5021660;28;20300;-68
2022/02/18 14:39:00;;;;;;;1.63;0.80;;;;;;;;;;5021659;28;20207;-68
2022/02/18 14:41:31;;;;;;;2.03;0.77;;;;;;;;;;5004217;28;20228;-66
2022/02/18 14:44:03;;;;;;;2.53;0.87;;;;;;;;;;5006391;28;20284;-67
2022/02/18 14:46:53;;;;;;;2.30;1.23;;;;;;;;;;5024422;28;20206;-68
2022/02/18 14:49:26;;;;;;;2.37;0.90;;;;;;;;;;5008203;28;20231;-67
2022/02/18 14:51:59;;;;;;;1.50;0.77;;;;;;;;;;5019425;28;20219;-67
2022/02/18 14:54:28;;;;;;;2.00;0.87;;;;;;;;;;5023711;28;20206;-68
2022/02/18 14:56:57;;;;;;;2.27;0.90;;;;;;;;;;5004655;28;20667;-68
2022/02/18 14:59:26;;;;;;;1.53;0.90;;;;;;;;;;5015536;28;20738;-68
2022/02/18 15:02:00;;;;;;;3.83;0.90;;;;;;;;;;5017409;28;20238;-67
2022/02/18 15:04:31;;;;;;;2.27;0.87;;;;;;;;;;5024028;28;20206;-66
2022/02/18 15:07:01;;;;;;;1.67;1.00;;;;;;;;;;5018841;28;20192;-68
2022/02/18 15:09:32;;;;;;;5.30;1.57;;;;;;;;;;5010021;28;20191;-69
2022/02/18 15:12:06;;;;;;;2.47;1.13;;;;;;;;;;4979952;28;20219;-69
2022/02/18 15:14:43;;;;;;;2.63;1.20;;;;;;;;;;5022046;28;20222;-69
2022/02/18 15:17:15;;;;;;;2.10;1.03;;;;;;;;;;5013710;28;20946;-67
2022/02/18 15:19:51;;;;;;;3.03;1.10;;;;;;;;;;5014370;28;20211;-67
2022/02/18 15:22:23;;;;;;;2.47;1.10;;;;;;;;;;5021298;28;20330;-67